Time;durP1;ratioP1;P1;durP2;ratioP2;P2;SDS_P1;SDS_P2;PMS_P1;PMS_P2;Temp;Humidity;BMP_temperature;BMP_pressure;BME280_temperature;BME280_humidity;BME280_pressure;Samples;Min_cycle;Max_cycle;Signal;HPM_P1;HPM_P2
2022/09/24 00:01:18;;;;;;;18.77;12.77;;;;;;;13.92;81.00;101224.94;6093783;23;20423;-91
2022/09/24 00:03:49;;;;;;;19.08;12.65;;;;;;;13.93;80.44;101223.13;6118272;23;20010;-92
2022/09/24 00:06:17;;;;;;;22.65;13.88;;;;;;;13.84;80.91;101228.88;6119651;23;20010;-91
2022/09/24 00:08:44;;;;;;;17.67;12.50;;;;;;;13.79;80.46;101213.16;6088589;23;20006;-91
2022/09/24 00:11:11;;;;;;;19.63;13.32;;;;;;;13.82;80.84;101225.47;6103690;23;20581;-91
2022/09/24 00:13:36;;;;;;;19.08;12.02;;;;;;;13.83;80.53;101221.84;6095033;23;20001;-90
2022/09/24 00:16:04;;;;;;;21.88;14.43;;;;;;;13.72;82.16;101220.56;6094127;23;20431;-91
2022/09/24 00:18:30;;;;;;;17.20;12.27;;;;;;;13.69;81.51;101212.75;6121442;23;20084;-91
2022/09/24 00:20:55;;;;;;;19.15;12.70;;;;;;;13.71;80.76;101207.38;6092917;23;20041;-91
2022/09/24 00:23:21;;;;;;;23.00;13.82;;;;;;;13.71;81.23;101200.25;6093418;23;20029;-91
2022/09/24 00:28:32;;;;;;;21.23;13.20;;;;;;;13.84;81.00;101212.94;6109937;23;20032;-91
2022/09/24 00:30:58;;;;;;;21.20;13.55;;;;;;;13.84;80.68;101207.63;6120230;23;20228;-90
2022/09/24 00:33:27;;;;;;;17.60;12.35;;;;;;;13.76;80.73;101195.59;6093806;23;20338;-91
2022/09/24 00:35:52;;;;;;;19.60;13.10;;;;;;;13.77;80.30;101197.31;6093766;23;20006;-91
2022/09/24 00:38:18;;;;;;;20.35;13.38;;;;;;;13.73;80.58;101194.88;6120419;23;20385;-91
2022/09/24 00:40:43;;;;;;;19.58;13.40;;;;;;;13.75;80.83;101195.63;6111631;23;20065;-90
2022/09/24 00:43:30;;;;;;;17.95;12.20;;;;;;;13.79;80.30;101190.09;6119180;23;20010;-91
2022/09/24 00:46:21;;;;;;;17.80;12.48;;;;;;;13.83;80.18;101189.97;6094290;23;20442;-91
2022/09/24 00:48:48;;;;;;;20.85;13.18;;;;;;;13.84;80.67;101189.03;6120066;23;20002;-91
2022/09/24 00:51:17;;;;;;;17.65;12.45;;;;;;;13.91;80.61;101190.47;6093218;23;20021;-90
2022/09/24 00:53:48;;;;;;;18.17;12.88;;;;;;;13.86;80.02;101177.41;6095446;23;20532;-91
2022/09/24 00:56:15;;;;;;;18.67;12.45;;;;;;;13.93;79.64;101180.59;6121582;23;20457;-91
2022/09/24 00:58:45;;;;;;;19.35;13.00;;;;;;;13.86;79.93;101174.75;6096555;23;20014;-92
2022/09/24 01:01:11;;;;;;;18.23;12.48;;;;;;;13.90;79.60;101176.31;6121890;23;20040;-91
2022/09/24 01:03:39;;;;;;;19.80;12.90;;;;;;;13.87;80.01;101168.47;6120730;23;20423;-90
2022/09/24 01:06:06;;;;;;;18.10;11.73;;;;;;;13.87;79.72;101168.47;6096201;23;20006;-92
2022/09/24 01:08:31;;;;;;;16.38;12.13;;;;;;;13.80;79.59;101159.06;6095514;23;20457;-90
2022/09/24 01:11:02;;;;;;;17.92;12.70;;;;;;;13.92;79.96;101168.25;6095433;23;20311;-90
2022/09/24 01:13:48;;;;;;;19.73;12.60;;;;;;;13.88;80.15;101166.69;6122500;23;20080;-90
2022/09/24 01:16:20;;;;;;;19.73;12.82;;;;;;;13.90;79.85;101163.03;6121415;23;20016;-91
2022/09/24 01:19:19;;;;;;;17.67;11.20;;;;;;;13.95;79.61;101153.03;6120912;23;20010;-90
2022/09/24 01:21:56;;;;;;;15.07;11.40;;;;;;;13.83;79.06;101153.63;6095258;23;20021;-90
2022/09/24 01:24:28;;;;;;;18.90;12.60;;;;;;;13.86;80.33;101153.47;6121577;23;20002;-91
2022/09/24 01:26:58;;;;;;;18.35;13.02;;;;;;;13.79;80.36;101146.72;6122300;23;20009;-90
2022/09/24 01:29:40;;;;;;;17.88;12.02;;;;;;;13.80;80.51;101140.47;6120706;23;20375;-90
2022/09/24 01:32:27;;;;;;;20.55;11.88;;;;;;;13.79;80.16;101144.94;6117353;23;20323;-89
2022/09/24 01:35:00;;;;;;;16.25;11.60;;;;;;;13.72;79.83;101126.72;6121394;23;20010;-90
2022/09/24 01:37:30;;;;;;;17.38;11.57;;;;;;;13.78;79.67;101129.06;6094646;23;20006;-90
2022/09/24 01:39:57;;;;;;;19.05;12.23;;;;;;;13.77;79.65;101127.34;6120366;23;20081;-90
2022/09/24 01:42:26;;;;;;;19.88;12.80;;;;;;;13.75;80.36;101132.72;6094918;23;20488;-90
2022/09/24 01:44:51;;;;;;;19.20;12.77;;;;;;;13.82;79.64;101143.06;6094843;23;20022;-90
2022/09/24 01:47:25;;;;;;;19.95;13.32;;;;;;;13.72;80.43;101122.25;6120739;23;20013;-90
2022/09/24 01:49:52;;;;;;;17.90;12.45;;;;;;;13.76;79.62;101133.59;6094316;23;20442;-90
2022/09/24 01:52:23;;;;;;;19.15;13.48;;;;;;;13.72;79.86;101122.25;6091852;23;20084;-91
2022/09/24 01:54:51;;;;;;;19.30;12.75;;;;;;;13.71;80.15;101117.88;6120000;23;20001;-90
2022/09/24 01:57:32;;;;;;;18.75;12.55;;;;;;;13.83;79.22;101123.53;6093975;23;20005;-89
2022/09/24 02:00:08;;;;;;;19.55;12.90;;;;;;;13.85;79.75;101129.63;6118949;23;20002;-90
2022/09/24 02:02:44;;;;;;;18.33;11.77;;;;;;;13.79;79.22;101125.47;6118136;23;20012;-90
2022/09/24 02:05:27;;;;;;;18.05;12.73;;;;;;;13.84;79.88;101126.09;6118425;23;20014;-89
2022/09/24 02:08:21;;;;;;;19.17;12.27;;;;;;;13.80;79.30;101113.88;6116211;23;20010;-90
2022/09/24 02:11:07;;;;;;;18.77;12.73;;;;;;;13.90;78.86;101122.31;6118978;23;20010;-89
2022/09/24 02:13:47;;;;;;;18.60;12.68;;;;;;;13.89;79.88;101121.41;6093035;23;20002;-89
2022/09/24 02:16:19;;;;;;;20.40;12.95;;;;;;;13.82;80.55;101120.00;6092144;23;20495;-89
2022/09/24 02:18:48;;;;;;;21.83;14.40;;;;;;;13.71;80.41;101106.41;6119900;23;20426;-90
2022/09/24 02:21:17;;;;;;;18.35;13.48;;;;;;;13.74;80.55;101119.53;6094058;23;20006;-90
2022/09/24 02:24:06;;;;;;;19.52;12.68;;;;;;;13.73;79.37;101110.69;6093702;23;20010;-89
2022/09/24 02:26:32;;;;;;;22.27;13.70;;;;;;;13.68;81.11;101109.19;6093401;23;20006;-89
2022/09/24 02:28:58;;;;;;;21.33;13.63;;;;;;;13.67;81.03;101105.69;6119985;23;20497;-90
2022/09/24 02:31:30;;;;;;;21.38;13.93;;;;;;;13.73;80.95;101115.16;6093643;23;20105;-90
2022/09/24 02:36:42;;;;;;;21.70;14.63;;;;;;;13.81;80.16;101112.13;6097171;23;20053;-90
2022/09/24 02:39:07;;;;;;;20.35;14.40;;;;;;;13.78;80.73;101103.34;6119895;23;20335;-89
2022/09/24 02:41:34;;;;;;;20.27;14.00;;;;;;;13.75;80.59;101103.50;6092836;23;20013;-89
2022/09/24 02:44:00;;;;;;;22.73;14.20;;;;;;;13.72;79.89;101102.81;6118743;23;20017;-89
2022/09/24 02:46:25;;;;;;;21.05;13.77;;;;;;;13.74;80.96;101101.78;6119101;23;20109;-90
2022/09/24 02:48:51;;;;;;;21.48;15.38;;;;;;;13.70;80.88;101096.69;6094272;23;20068;-90
2022/09/24 02:51:16;;;;;;;22.45;15.68;;;;;;;13.70;80.56;101094.03;6118916;23;20081;-89
2022/09/24 02:53:41;;;;;;;19.73;14.27;;;;;;;13.67;81.28;101089.75;6094166;23;20395;-89
2022/09/24 02:56:07;;;;;;;23.42;15.88;;;;;;;13.68;81.23;101091.47;6118221;23;20037;-90
2022/09/24 02:58:32;;;;;;;26.25;16.77;;;;;;;13.65;81.08;101091.59;6093796;23;20033;-90
2022/09/24 03:00:58;;;;;;;25.65;18.17;;;;;;;13.65;81.79;101094.25;6119060;23;20433;-90
2022/09/24 03:03:23;;;;;;;22.77;15.25;;;;;;;13.70;80.67;101094.03;6092315;23;20422;-90
2022/09/24 03:05:51;;;;;;;25.77;15.73;;;;;;;13.63;81.14;101087.31;6093460;23;20453;-90
2022/09/24 03:08:18;;;;;;;25.70;15.20;;;;;;;13.71;81.07;101093.13;6119651;23;20006;-90
2022/09/24 03:10:43;;;;;;;24.65;16.13;;;;;;;13.65;80.39;101077.47;6119260;23;20009;-90
2022/09/24 03:13:09;;;;;;;28.38;17.92;;;;;;;13.65;80.74;101088.94;6093582;23;20092;-90
2022/09/24 03:15:35;;;;;;;31.42;19.33;;;;;;;13.69;81.88;101095.81;6108235;23;20142;-90
2022/09/24 03:18:00;;;;;;;26.02;17.42;;;;;;;13.60;81.55;101076.81;6119336;23;20585;-90
2022/09/24 03:20:25;;;;;;;27.80;18.05;;;;;;;13.61;82.26;101082.06;6119827;23;20025;-90
2022/09/24 03:22:51;;;;;;;28.90;18.05;;;;;;;13.62;81.74;101077.63;6092448;23;20084;-90
2022/09/24 03:25:17;;;;;;;32.58;20.33;;;;;;;13.59;82.63;101081.28;6092406;23;20085;-91
2022/09/24 03:27:42;;;;;;;34.50;20.58;;;;;;;13.63;82.79;101085.50;6092082;23;20017;-91
2022/09/24 03:32:52;;;;;;;30.80;20.08;;;;;;;13.61;81.82;101074.09;6117441;23;20020;-91
2022/09/24 03:35:18;;;;;;;32.83;19.98;;;;;;;13.65;82.74;101078.31;6119593;23;20104;-91
2022/09/24 03:37:45;;;;;;;29.50;19.92;;;;;;;13.62;82.21;101073.16;6091435;23;20397;-89
2022/09/24 03:40:10;;;;;;;32.05;21.02;;;;;;;13.60;82.72;101075.03;6119067;23;20004;-90
2022/09/24 03:42:35;;;;;;;33.00;20.60;;;;;;;13.63;82.84;101077.53;6091589;23;20038;-91
2022/09/24 03:45:01;;;;;;;33.20;20.40;;;;;;;13.63;82.30;101071.38;6092741;23;20025;-91
2022/09/24 03:47:26;;;;;;;33.13;21.33;;;;;;;13.71;82.62;101075.38;6092117;23;20002;-91
2022/09/24 03:49:52;;;;;;;30.38;20.20;;;;;;;13.63;82.24;101061.59;6117959;23;20148;-90
2022/09/24 03:52:18;;;;;;;32.30;19.63;;;;;;;13.59;81.22;101064.47;6092860;23;20006;-90
2022/09/24 03:54:43;;;;;;;32.28;21.13;;;;;;;13.66;82.40;101071.19;6117632;23;20320;-91
2022/09/24 03:57:08;;;;;;;37.53;23.63;;;;;;;13.60;83.11;101072.38;6092598;23;20013;-90
2022/09/24 03:59:34;;;;;;;32.90;21.15;;;;;;;13.58;82.62;101050.34;6119376;23;20029;-91
2022/09/24 04:01:59;;;;;;;31.42;20.05;;;;;;;13.62;83.11;101059.88;6116527;23;20005;-91
2022/09/24 04:04:24;;;;;;;28.38;19.42;;;;;;;13.58;82.10;101047.69;6093796;23;20006;-90
2022/09/24 04:06:51;;;;;;;31.45;19.38;;;;;;;13.67;82.33;101057.88;6093778;23;20001;-91
2022/09/24 04:09:17;;;;;;;32.03;20.77;;;;;;;13.51;82.15;101040.94;6092939;23;20343;-91
2022/09/24 04:11:42;;;;;;;32.00;20.95;;;;;;;13.58;83.15;101047.69;6093567;23;20006;-90
2022/09/24 04:14:08;;;;;;;33.72;20.83;;;;;;;13.59;83.03;101052.06;6115409;23;20009;-91
2022/09/24 04:16:33;;;;;;;29.92;19.52;;;;;;;13.60;83.32;101055.56;6119927;23;20005;-90
2022/09/24 04:18:59;;;;;;;30.17;19.27;;;;;;;13.55;82.80;101042.50;6113448;23;20006;-90
2022/09/24 04:21:25;;;;;;;29.75;19.38;;;;;;;13.56;82.86;101046.88;6118484;23;20338;-90
2022/09/24 04:23:50;;;;;;;29.98;19.20;;;;;;;13.49;83.38;101038.38;6117443;23;20395;-90
2022/09/24 04:26:16;;;;;;;28.65;18.83;;;;;;;13.51;83.31;101041.78;6093336;23;20449;-90
2022/09/24 04:28:41;;;;;;;30.17;19.02;;;;;;;13.50;82.94;101039.22;6108833;23;20010;-90
2022/09/24 04:31:06;;;;;;;27.13;18.38;;;;;;;13.51;83.48;101038.28;6089410;23;20010;-91
2022/09/24 04:33:31;;;;;;;31.02;19.48;;;;;;;13.49;83.74;101038.38;6106415;23;20006;-90
2022/09/24 04:35:57;;;;;;;32.67;19.63;;;;;;;13.43;83.46;101035.13;6119981;23;20002;-91
2022/09/24 04:38:22;;;;;;;25.90;18.67;;;;;;;13.50;83.49;101031.25;6093500;23;20006;-90
2022/09/24 04:40:48;;;;;;;31.42;20.05;;;;;;;13.43;83.23;101035.13;6109944;23;20072;-91
2022/09/24 04:43:13;;;;;;;31.60;19.95;;;;;;;13.40;83.18;101030.00;6086257;23;20518;-91
2022/09/24 04:45:38;;;;;;;30.45;20.15;;;;;;;13.47;83.61;101042.03;6085249;23;20417;-90
2022/09/24 04:48:04;;;;;;;32.00;18.63;;;;;;;13.47;83.37;101053.50;6094205;23;20009;-91
2022/09/24 04:50:33;;;;;;;33.95;19.83;;;;;;;13.50;84.02;101052.50;6119911;23;20089;-90
2022/09/24 04:53:00;;;;;;;30.70;20.60;;;;;;;13.42;83.21;101052.00;6118196;23;20338;-90
2022/09/24 04:55:26;;;;;;;28.30;19.55;;;;;;;13.45;83.89;101047.41;6093827;23;20390;-90
2022/09/24 04:57:55;;;;;;;32.30;19.65;;;;;;;13.40;83.71;101037.97;6092594;23;20010;-90
2022/09/24 05:00:20;;;;;;;33.67;20.85;;;;;;;13.44;83.26;101040.41;6093485;23;20002;-90
2022/09/24 05:02:45;;;;;;;31.02;20.95;;;;;;;13.44;83.78;101042.19;6118341;23;20081;-91
2022/09/24 05:05:12;;;;;;;31.27;19.50;;;;;;;13.49;83.86;101053.44;6092530;23;20044;-91
2022/09/24 05:07:38;;;;;;;29.65;20.27;;;;;;;13.46;84.13;101049.13;6094946;23;20006;-91
2022/09/24 05:10:05;;;;;;;29.30;20.10;;;;;;;13.49;84.08;101058.75;6094343;23;20033;-90
2022/09/24 05:12:31;;;;;;;29.23;19.58;;;;;;;13.49;84.13;101056.09;6118594;23;20002;-90
2022/09/24 05:14:56;;;;;;;32.25;20.33;;;;;;;13.46;84.23;101048.28;6094741;23;20010;-91
2022/09/24 05:17:21;;;;;;;26.50;17.75;;;;;;;13.44;83.57;101044.84;6119888;23;20009;-91
2022/09/24 05:19:47;;;;;;;30.60;18.80;;;;;;;13.42;84.34;101041.38;6119193;23;20017;-91
2022/09/24 05:22:12;;;;;;;27.58;18.23;;;;;;;13.35;84.14;101029.38;6093395;23;20006;-92
2022/09/24 05:24:37;;;;;;;31.58;20.75;;;;;;;13.40;84.81;101052.09;6093604;23;20418;-90
2022/09/24 05:27:09;;;;;;;29.58;18.77;;;;;;;13.40;84.74;101043.28;6089874;23;20081;-91
2022/09/24 05:29:42;;;;;;;29.23;20.02;;;;;;;13.47;84.50;101063.28;6107411;23;20021;-91
2022/09/24 05:32:10;;;;;;;27.40;18.63;;;;;;;13.36;84.83;101041.69;6119061;23;20077;-91
2022/09/24 05:34:36;;;;;;;27.08;16.73;;;;;;;13.36;84.35;101053.19;6119379;23;20080;-90
2022/09/24 05:37:03;;;;;;;25.73;17.50;;;;;;;13.38;84.61;101045.13;6119856;23;20034;-90
2022/09/24 05:39:29;;;;;;;26.55;18.65;;;;;;;13.30;84.99;101049.97;6119903;23;20446;-91
2022/09/24 05:41:55;;;;;;;26.98;17.45;;;;;;;13.41;84.19;101055.63;6121229;23;20035;-91
2022/09/24 05:44:21;;;;;;;26.10;16.95;;;;;;;13.35;84.52;101050.59;6119785;23;20018;-91
2022/09/24 05:46:50;;;;;;;24.92;17.52;;;;;;;13.36;85.22;101052.31;6120882;23;20069;-90
2022/09/24 05:49:15;;;;;;;25.70;17.60;;;;;;;13.31;85.00;101051.69;6121272;23;20010;-90
2022/09/24 05:51:41;;;;;;;25.20;15.85;;;;;;;13.39;84.93;101068.97;6095384;23;20072;-91
2022/09/24 05:54:10;;;;;;;26.30;18.33;;;;;;;13.37;85.00;101059.34;6120440;23;20133;-91
2022/09/24 05:56:35;;;;;;;26.83;16.52;;;;;;;13.36;84.56;101061.16;6121541;23;20513;-90
2022/09/24 05:59:01;;;;;;;23.85;16.63;;;;;;;13.32;84.62;101051.59;6095322;23;20006;-91
2022/09/24 06:01:28;;;;;;;22.38;15.60;;;;;;;13.40;84.81;101059.22;6120443;23;20068;-91
2022/09/24 06:03:57;;;;;;;25.35;16.38;;;;;;;13.43;84.91;101073.22;6093398;23;20435;-90
2022/09/24 06:06:26;;;;;;;27.15;17.35;;;;;;;13.36;85.18;101065.59;6089554;23;20006;-91
2022/09/24 06:08:52;;;;;;;23.27;15.13;;;;;;;13.32;84.88;101062.22;6084265;23;20006;-91
2022/09/24 06:11:17;;;;;;;25.38;16.95;;;;;;;13.33;84.81;101060.41;6076153;23;20010;-91
2022/09/24 06:13:43;;;;;;;26.25;17.73;;;;;;;13.39;85.18;101073.44;6075023;23;20014;-91
2022/09/24 06:16:11;;;;;;;26.63;17.05;;;;;;;13.34;84.86;101075.44;6094148;23;20339;-91
2022/09/24 06:18:38;;;;;;;25.08;16.48;;;;;;;13.37;85.74;101080.59;6095400;23;20437;-91
2022/09/24 06:21:06;;;;;;;22.65;14.90;;;;;;;13.34;84.74;101071.00;6093879;23;20085;-91
2022/09/24 06:23:33;;;;;;;25.55;16.23;;;;;;;13.37;84.94;101070.81;6094915;23;20057;-92
2022/09/24 06:25:59;;;;;;;21.77;14.85;;;;;;;13.42;84.69;101079.44;6093244;23;20013;-90
2022/09/24 06:28:24;;;;;;;25.67;15.68;;;;;;;13.46;84.63;101077.50;6095310;23;20006;-90
2022/09/24 06:30:50;;;;;;;23.08;16.05;;;;;;;13.42;84.48;101076.78;6093491;23;20013;-90
2022/09/24 06:33:15;;;;;;;25.88;17.27;;;;;;;13.39;85.18;101065.47;6094242;23;20006;-91
2022/09/24 06:35:42;;;;;;;22.63;16.48;;;;;;;13.38;84.86;101074.34;6119804;23;20530;-90
2022/09/24 06:38:11;;;;;;;28.60;17.13;;;;;;;13.39;85.17;101076.09;6117439;23;20016;-90
2022/09/24 06:40:37;;;;;;;26.48;17.48;;;;;;;13.36;85.38;101078.88;6094681;23;20350;-91
2022/09/24 06:43:04;;;;;;;23.73;14.75;;;;;;;13.41;84.62;101079.50;6120233;23;20002;-91
2022/09/24 06:45:29;;;;;;;23.25;14.65;;;;;;;13.44;83.87;101090.84;6094286;23;20024;-90
2022/09/24 06:47:59;;;;;;;23.85;15.23;;;;;;;13.47;84.02;101088.03;6094973;23;20009;-91
2022/09/24 06:50:26;;;;;;;23.33;15.88;;;;;;;13.47;84.55;101092.50;6120051;23;20002;-91
2022/09/24 06:52:52;;;;;;;24.13;15.90;;;;;;;13.50;84.45;101092.34;6093883;23;20101;-91
2022/09/24 06:55:18;;;;;;;25.23;16.05;;;;;;;13.48;85.03;101089.78;6120134;23;20037;-91
2022/09/24 06:57:43;;;;;;;23.13;16.27;;;;;;;13.48;85.06;101089.78;6094880;23;20316;-91
2022/09/24 07:00:10;;;;;;;22.58;15.15;;;;;;;13.57;84.82;101103.53;6119599;23;20107;-91
2022/09/24 07:02:35;;;;;;;27.08;17.00;;;;;;;13.47;84.56;101081.88;6119353;23;20024;-91
2022/09/24 07:05:00;;;;;;;26.33;17.08;;;;;;;13.56;84.82;101105.31;6118889;23;20080;-90
2022/09/24 07:07:29;;;;;;;26.33;17.05;;;;;;;13.56;84.56;101099.16;6120059;23;20417;-91
2022/09/24 07:09:55;;;;;;;24.70;15.98;;;;;;;13.59;83.83;101101.69;6113029;23;20461;-90
2022/09/24 07:12:21;;;;;;;26.98;18.15;;;;;;;13.65;84.02;101102.22;6119680;23;20081;-90
2022/09/24 07:14:47;;;;;;;27.42;17.92;;;;;;;13.60;84.60;101096.28;6092293;23;20041;-90
2022/09/24 07:17:12;;;;;;;28.58;18.55;;;;;;;13.54;84.78;101088.63;6117014;23;20006;-91
2022/09/24 07:19:37;;;;;;;27.10;17.52;;;;;;;13.59;83.72;101102.53;6120899;23;20059;-90
2022/09/24 07:22:04;;;;;;;30.48;19.55;;;;;;;13.67;84.35;101118.13;6120224;23;20080;-90
2022/09/24 07:24:29;;;;;;;25.65;17.75;;;;;;;13.66;84.88;101114.59;6093040;23;20080;-90
2022/09/24 07:26:55;;;;;;;28.15;18.23;;;;;;;13.62;84.60;101099.75;6093040;23;20037;-91
2022/09/24 07:29:20;;;;;;;25.95;18.10;;;;;;;13.65;84.69;101102.22;6120191;23;20037;-91
2022/09/24 07:31:46;;;;;;;26.40;16.20;;;;;;;13.69;83.91;101111.78;6119053;23;20441;-90
2022/09/24 07:34:13;;;;;;;26.05;16.95;;;;;;;13.75;83.14;101118.56;6092684;23;20101;-90
2022/09/24 07:36:39;;;;;;;27.67;16.95;;;;;;;13.71;84.89;101107.25;6094506;23;20366;-90
2022/09/24 07:39:04;;;;;;;28.80;18.45;;;;;;;13.66;84.54;101109.28;6120309;23;20414;-91
2022/09/24 07:41:29;;;;;;;29.20;17.83;;;;;;;13.67;84.81;101123.44;6092906;23;20013;-91
2022/09/24 07:43:55;;;;;;;27.65;18.63;;;;;;;13.61;84.25;101115.72;6093878;23;20095;-91
2022/09/24 07:46:20;;;;;;;27.33;18.33;;;;;;;13.63;85.28;101125.38;6092567;23;20506;-91
2022/09/24 07:48:48;;;;;;;24.17;16.83;;;;;;;13.64;84.40;101124.41;6119785;23;20080;-91
2022/09/24 07:51:13;;;;;;;26.10;17.67;;;;;;;13.69;84.89;101119.75;6093929;23;20057;-92
2022/09/24 07:53:38;;;;;;;28.48;19.23;;;;;;;13.64;84.59;101118.25;6119728;23;20001;-91
2022/09/24 07:56:04;;;;;;;29.10;18.88;;;;;;;13.76;84.97;101125.63;6118783;23;20006;-91
2022/09/24 07:58:30;;;;;;;25.65;17.83;;;;;;;13.74;85.23;101130.16;6120758;23;20009;-91
2022/09/24 08:00:59;;;;;;;26.73;18.42;;;;;;;13.75;84.72;101121.22;6120087;23;20009;-92
2022/09/24 08:03:24;;;;;;;26.90;18.02;;;;;;;13.84;84.21;101131.41;6092913;23;20085;-92
2022/09/24 08:05:50;;;;;;;28.80;19.52;;;;;;;13.79;84.42;101120.16;6094425;23;20230;-92
2022/09/24 08:08:16;;;;;;;27.40;19.02;;;;;;;13.89;84.00;101147.13;6121017;23;20426;-91
2022/09/24 08:10:41;;;;;;;27.88;18.10;;;;;;;13.74;84.15;101130.16;6119617;23;20073;-91
2022/09/24 08:13:07;;;;;;;24.90;16.75;;;;;;;13.84;84.15;101146.50;6093691;23;20005;-91
2022/09/24 08:15:33;;;;;;;26.80;17.75;;;;;;;13.79;83.95;101144.06;6119708;23;20117;-92
2022/09/24 08:18:02;;;;;;;26.05;18.60;;;;;;;13.75;84.15;101138.03;6093745;23;20005;-91
2022/09/24 08:20:28;;;;;;;26.30;18.00;;;;;;;13.77;84.45;101140.63;6093423;23;20002;-91
2022/09/24 08:22:53;;;;;;;26.85;18.75;;;;;;;13.81;84.15;101139.56;6119969;23;20435;-92
2022/09/24 08:25:22;;;;;;;28.33;18.42;;;;;;;13.83;84.24;101147.44;6093659;23;20006;-91
2022/09/24 08:27:47;;;;;;;29.65;19.75;;;;;;;13.78;84.90;101148.53;6120028;23;20010;-91
2022/09/24 08:30:12;;;;;;;30.10;19.92;;;;;;;13.83;85.13;101152.75;6092112;23;20438;-92
2022/09/24 08:32:38;;;;;;;29.35;18.60;;;;;;;13.88;84.52;101159.56;6092775;23;20419;-92
2022/09/24 08:35:03;;;;;;;27.50;18.13;;;;;;;13.88;84.26;101154.25;6092661;23;20006;-91
2022/09/24 08:37:29;;;;;;;28.67;18.85;;;;;;;13.87;84.94;101144.56;6094791;23;20014;-91
2022/09/24 08:39:54;;;;;;;31.65;21.05;;;;;;;13.83;84.41;101150.97;6112342;23;20009;-92
2022/09/24 08:42:51;;;;;;;29.70;21.60;;;;;;;13.93;85.11;101168.19;6107182;23;20002;-91
2022/09/24 08:48:18;;;;;;;26.58;18.60;;;;;;;13.94;84.13;101153.09;6120133;23;20017;-91
2022/09/24 08:50:47;;;;;;;;;;;;;;;14.11;83.43;101161.09;6091423;23;20052;-90
2022/09/24 08:53:23;;;;;;;27.50;17.75;;;;;;;13.96;83.76;101153.88;6118728;23;19962;-91
2022/09/24 08:55:54;;;;;;;28.40;19.27;;;;;;;13.95;84.23;101153.03;6119354;23;20008;-91
2022/09/24 08:58:27;;;;;;;24.70;17.60;;;;;;;14.07;83.70;101169.28;6093520;23;20096;-90
2022/09/24 09:01:11;;;;;;;26.63;17.77;;;;;;;14.04;83.34;101171.19;6093083;23;20006;-91
2022/09/24 09:03:55;;;;;;;27.48;17.17;;;;;;;14.01;83.24;101158.03;6119351;23;20338;-91
2022/09/24 09:06:54;;;;;;;27.60;17.83;;;;;;;14.15;84.08;101178.63;6093614;23;20006;-91
2022/09/24 09:09:31;;;;;;;28.20;18.60;;;;;;;14.07;83.81;101170.16;6093713;23;20040;-91
2022/09/24 09:12:03;;;;;;;31.38;20.20;;;;;;;14.13;84.50;101166.31;6092984;23;20002;-91
2022/09/24 09:14:31;;;;;;;;;;;;;;;14.36;83.21;101173.16;6094778;23;20063;-91
2022/09/24 09:17:05;;;;;;;28.02;18.35;;;;;;;14.29;83.70;101173.47;6121533;23;20237;-90
2022/09/24 09:19:33;;;;;;;29.83;19.27;;;;;;;14.25;83.47;101166.59;6120439;23;20057;-90
2022/09/24 09:22:06;;;;;;;29.35;19.13;;;;;;;14.27;83.53;101179.81;6094425;23;20005;-94
2022/09/24 09:24:49;;;;;;;27.92;18.70;;;;;;;14.34;82.76;101186.53;6123244;23;20006;-91
2022/09/24 09:27:15;;;;;;;28.08;18.60;;;;;;;14.32;83.31;101187.56;6121811;23;20056;-91
2022/09/24 09:29:45;;;;;;;28.00;18.48;;;;;;;14.30;83.35;101191.16;6096823;23;20002;-90
2022/09/24 09:32:29;;;;;;;25.17;17.77;;;;;;;14.36;83.55;101178.47;6095818;23;20013;-90
2022/09/24 09:35:18;;;;;;;28.23;18.45;;;;;;;14.43;82.50;101179.91;6120568;23;20429;-90
2022/09/24 09:38:18;;;;;;;29.05;19.90;;;;;;;14.47;82.59;101181.47;6120489;23;20012;-91
2022/09/24 09:41:10;;;;;;;27.60;18.55;;;;;;;14.44;83.23;101181.63;6121887;23;20025;-90
2022/09/24 09:43:37;;;;;;;30.65;19.48;;;;;;;14.37;83.42;101169.59;6119233;23;20013;-92
2022/09/24 09:46:26;;;;;;;27.08;18.17;;;;;;;14.53;82.83;101175.84;6121534;23;20017;-90
2022/09/24 09:48:58;;;;;;;29.73;19.98;;;;;;;14.50;82.98;101184.88;6121980;23;20010;-90
2022/09/24 09:51:25;;;;;;;27.17;18.13;;;;;;;14.51;82.12;101188.41;6095032;23;20017;-91
2022/09/24 09:53:54;;;;;;;28.73;18.48;;;;;;;14.54;83.28;101186.41;6095634;23;20418;-91
2022/09/24 09:56:25;;;;;;;28.98;18.02;;;;;;;14.62;82.02;101190.50;6122116;23;20009;-91
2022/09/24 09:58:54;;;;;;;27.95;18.58;;;;;;;14.58;82.24;101168.50;6094132;23;20474;-91
2022/09/24 10:01:30;;;;;;;24.65;17.85;;;;;;;14.61;81.75;101179.00;6107293;23;20133;-90
2022/09/24 10:04:01;;;;;;;27.20;18.80;;;;;;;14.66;82.40;101187.59;6120743;23;20035;-92
2022/09/24 10:06:33;;;;;;;28.45;19.50;;;;;;;14.64;82.32;101183.28;6094796;23;20017;-91
2022/09/24 10:09:14;;;;;;;27.90;18.60;;;;;;;14.62;82.11;101183.38;6121657;23;20466;-92
2022/09/24 10:11:40;;;;;;;26.60;18.63;;;;;;;14.58;82.90;101175.63;6094263;23;20010;-91
2022/09/24 10:14:10;;;;;;;25.75;17.48;;;;;;;14.66;82.65;101176.94;6119119;23;20006;-92
2022/09/24 10:16:41;;;;;;;27.00;17.90;;;;;;;14.72;82.94;101189.06;6116941;23;20680;-91
2022/09/24 10:19:21;;;;;;;29.20;19.77;;;;;;;14.74;82.03;101184.56;6094355;23;20008;-91
2022/09/24 10:21:46;;;;;;;24.65;17.73;;;;;;;14.72;82.02;101173.97;6089771;23;20438;-92
2022/09/24 10:24:20;;;;;;;25.65;17.83;;;;;;;14.78;82.13;101173.66;6093811;23;20008;-92
2022/09/24 10:26:46;;;;;;;25.40;18.27;;;;;;;14.82;81.90;101168.16;6119863;23;20482;-92
2022/09/24 10:32:12;;;;;;;24.60;16.67;;;;;;;15.05;80.89;101175.78;6119421;23;20036;-91
2022/09/24 10:34:37;;;;;;;26.50;18.33;;;;;;;15.10;81.24;101173.75;6093629;23;20013;-90
2022/09/24 10:37:13;;;;;;;23.13;16.40;;;;;;;15.19;80.77;101186.56;6095204;23;20109;-91
2022/09/24 10:39:39;;;;;;;25.35;18.45;;;;;;;15.14;80.86;101175.28;6120303;23;20434;-91
2022/09/24 10:42:06;;;;;;;21.98;16.52;;;;;;;15.16;80.09;101180.56;6093834;23;20017;-92
2022/09/24 10:44:35;;;;;;;24.27;16.67;;;;;;;15.13;79.30;101175.38;6093338;23;20029;-92
2022/09/24 10:47:23;;;;;;;22.13;15.48;;;;;;;15.18;79.56;101176.00;6120545;23;20006;-91
2022/09/24 10:50:19;;;;;;;25.00;17.02;;;;;;;15.20;79.95;101187.41;6093837;23;20428;-91
2022/09/24 10:53:07;;;;;;;24.40;16.83;;;;;;;15.26;79.28;101195.94;6092226;23;20060;-92
2022/09/24 10:55:47;;;;;;;26.42;18.13;;;;;;;15.34;79.60;101200.00;6121151;23;20419;-92
2022/09/24 10:58:25;;;;;;;24.73;17.98;;;;;;;15.39;79.68;101193.50;6093078;23;20014;-90
2022/09/24 11:01:18;;;;;;;23.05;18.00;;;;;;;15.38;79.36;101194.41;6093235;23;20045;-92
2022/09/24 11:04:02;;;;;;;25.23;16.52;;;;;;;15.46;79.42;101194.00;6120837;23;20416;-90
2022/09/24 11:06:56;;;;;;;24.10;16.30;;;;;;;15.44;78.74;101198.56;6094502;23;20454;-92
2022/09/24 11:09:56;;;;;;;25.42;17.60;;;;;;;15.42;78.87;101198.63;6120148;23;20435;-91
2022/09/24 11:12:34;;;;;;;23.45;16.38;;;;;;;15.40;79.06;101189.03;6120998;23;20005;-92
2022/09/24 11:15:19;;;;;;;23.27;17.00;;;;;;;15.53;78.74;101204.25;6119245;23;20005;-90
2022/09/24 11:17:59;;;;;;;24.88;16.40;;;;;;;15.66;79.01;101215.09;6091715;23;20009;-92
2022/09/24 11:20:53;;;;;;;22.45;15.30;;;;;;;15.79;78.65;101207.28;6090716;23;20315;-91
2022/09/24 11:23:43;;;;;;;26.33;17.38;;;;;;;15.66;79.15;101201.78;6090695;23;20013;-91
2022/09/24 11:26:33;;;;;;;26.80;17.52;;;;;;;15.82;78.78;101209.81;6092113;23;20155;-91
2022/09/24 11:29:15;;;;;;;23.58;16.27;;;;;;;15.86;78.68;101202.50;6091405;23;20062;-92
2022/09/24 11:32:29;;;;;;;23.80;15.50;;;;;;;15.94;77.56;101206.41;6110019;23;20445;-93
2022/09/24 11:35:09;;;;;;;23.27;15.60;;;;;;;15.89;77.63;101208.50;6102337;23;20009;-94
2022/09/24 11:38:03;;;;;;;20.38;14.63;;;;;;;15.88;76.70;101197.94;6118764;23;20489;-94